createdAt,value
2022-10-01T00:01:16.537Z,9.43
2022-10-01T00:03:43.840Z,9.88
2022-10-01T00:06:12.112Z,11.50
2022-10-01T00:08:41.320Z,12.35
2022-10-01T00:11:10.395Z,10.20
2022-10-01T00:13:36.972Z,9.32
2022-10-01T00:18:37.118Z,11.07
2022-10-01T00:21:11.762Z,10.77
2022-10-01T00:23:38.367Z,11.70
2022-10-01T00:28:41.082Z,11.25
2022-10-01T00:31:08.846Z,10.38
2022-10-01T00:33:36.171Z,9.63
2022-10-01T00:36:07.691Z,9.13
2022-10-01T00:38:34.611Z,9.48
2022-10-01T00:41:01.657Z,10.05
2022-10-01T00:43:38.811Z,10.05
2022-10-01T00:46:17.079Z,10.32
2022-10-01T00:48:58.169Z,11.43
2022-10-01T00:51:32.594Z,11.68
2022-10-01T00:54:08.311Z,11.65
2022-10-01T00:56:35.280Z,12.20
2022-10-01T00:59:02.418Z,12.65
2022-10-01T01:01:29.024Z,12.38
2022-10-01T01:03:56.634Z,11.85
2022-10-01T01:06:23.177Z,12.45
2022-10-01T01:11:33.049Z,11.20
2022-10-01T01:14:25.659Z,12.30
2022-10-01T01:16:59.736Z,11.18
2022-10-01T01:19:44.743Z,12.18
2022-10-01T01:22:13.989Z,11.40
2022-10-01T01:24:51.169Z,13.55
2022-10-01T01:27:23.387Z,14.45
2022-10-01T01:30:04.556Z,12.00
2022-10-01T01:32:34.617Z,11.98
2022-10-01T01:35:05.496Z,12.02
2022-10-01T01:37:37.998Z,14.57
2022-10-01T01:40:11.565Z,15.52
2022-10-01T01:42:41.393Z,14.25
2022-10-01T01:45:13.606Z,14.55
2022-10-01T01:47:42.113Z,14.10
2022-10-01T01:50:11.401Z,14.45
2022-10-01T01:52:38.396Z,13.57
2022-10-01T01:55:08.638Z,15.15
2022-10-01T01:57:44.045Z,14.40
2022-10-01T02:00:12.690Z,14.85
2022-10-01T02:02:43.893Z,14.52
2022-10-01T02:05:16.019Z,13.45
2022-10-01T02:08:02.626Z,13.57
2022-10-01T02:10:44.693Z,13.32
2022-10-01T02:13:45.863Z,12.63
2022-10-01T02:16:35.395Z,10.95
2022-10-01T02:19:08.228Z,10.32
2022-10-01T02:21:50.326Z,10.20
2022-10-01T02:24:31.371Z,11.43
2022-10-01T02:27:01.560Z,12.48
2022-10-01T02:29:29.507Z,12.25
2022-10-01T02:31:57.200Z,12.18
2022-10-01T02:34:29.003Z,11.02
2022-10-01T02:36:57.465Z,13.50
2022-10-01T02:39:28.486Z,11.75
2022-10-01T02:41:56.559Z,11.98
2022-10-01T02:44:31.220Z,12.50
2022-10-01T02:47:07.734Z,13.35
2022-10-01T02:49:36.216Z,14.18
2022-10-01T02:52:34.180Z,14.63
2022-10-01T02:55:05.176Z,15.52
2022-10-01T02:57:32.848Z,13.43
2022-10-01T03:00:09.793Z,13.10
2022-10-01T03:02:36.424Z,13.93
2022-10-01T03:05:04.179Z,13.35
2022-10-01T03:07:34.615Z,13.93
2022-10-01T03:10:04.752Z,15.73
2022-10-01T03:12:31.664Z,14.15
2022-10-01T03:14:58.119Z,17.58
2022-10-01T03:17:24.739Z,15.45
2022-10-01T03:22:22.420Z,16.98
2022-10-01T03:24:50.093Z,18.48
2022-10-01T03:27:17.529Z,16.83
2022-10-01T03:29:44.548Z,17.75
2022-10-01T03:32:12.070Z,16.80
2022-10-01T03:34:38.582Z,14.98
2022-10-01T03:39:32.688Z,15.07
2022-10-01T03:41:59.181Z,14.90
2022-10-01T03:46:52.070Z,13.93
2022-10-01T03:51:45.544Z,14.07
2022-10-01T03:54:12.753Z,12.52
2022-10-01T03:56:42.637Z,11.77
2022-10-01T03:59:10.950Z,11.32
2022-10-01T04:01:39.316Z,12.38
2022-10-01T04:04:06.629Z,12.88
2022-10-01T04:06:33.350Z,15.55
2022-10-01T04:08:59.840Z,14.73
2022-10-01T04:13:53.062Z,14.30
2022-10-01T04:16:19.668Z,15.77
2022-10-01T04:18:46.220Z,16.63
2022-10-01T04:23:39.362Z,16.48
2022-10-01T04:28:32.446Z,16.90
2022-10-01T04:31:17.692Z,17.05
2022-10-01T04:33:44.864Z,16.55
2022-10-01T04:36:12.026Z,18.80
2022-10-01T04:38:38.512Z,17.02
2022-10-01T04:43:31.529Z,17.05
2022-10-01T04:48:24.573Z,16.85
2022-10-01T04:53:17.546Z,20.77
2022-10-01T04:55:44.009Z,25.23
2022-10-01T04:58:10.533Z,19.00
2022-10-01T05:03:03.567Z,16.55
2022-10-01T05:07:59.485Z,15.65
2022-10-01T05:12:52.977Z,14.02
2022-10-01T05:15:19.800Z,15.05
2022-10-01T05:17:47.262Z,15.63
2022-10-01T05:20:19.958Z,15.73
2022-10-01T05:22:47.378Z,13.52
2022-10-01T05:25:14.145Z,15.38
2022-10-01T05:27:40.964Z,15.05
2022-10-01T05:30:12.365Z,14.32
2022-10-01T05:32:38.998Z,14.30
2022-10-01T05:35:07.698Z,13.57
2022-10-01T05:37:34.947Z,14.38
2022-10-01T05:40:01.943Z,13.82
2022-10-01T05:42:28.434Z,14.27
2022-10-01T05:47:22.870Z,15.40
2022-10-01T05:49:49.472Z,12.45
2022-10-01T05:54:42.957Z,13.50
2022-10-01T05:59:36.237Z,13.60
2022-10-01T06:02:04.197Z,13.90
2022-10-01T06:04:31.399Z,13.32
2022-10-01T06:06:58.097Z,13.77
2022-10-01T06:09:24.589Z,13.48
2022-10-01T06:14:17.510Z,14.40
2022-10-01T06:19:10.513Z,14.32
2022-10-01T06:24:04.089Z,11.25
2022-10-01T06:28:57.677Z,15.43
2022-10-01T06:31:24.352Z,16.23
2022-10-01T06:33:50.867Z,18.75
2022-10-01T06:36:17.443Z,19.10
2022-10-01T06:41:10.693Z,26.17
2022-10-01T06:43:37.202Z,26.80
2022-10-01T06:48:32.497Z,16.33
2022-10-01T06:50:59.666Z,15.98
2022-10-01T06:53:27.752Z,15.75
2022-10-01T06:55:54.584Z,13.57
2022-10-01T06:58:24.395Z,14.68
2022-10-01T07:00:51.065Z,14.05
2022-10-01T07:03:20.260Z,13.27
2022-10-01T07:05:48.069Z,13.73
2022-10-01T07:08:14.864Z,13.88
2022-10-01T07:10:41.861Z,14.00
2022-10-01T07:13:14.270Z,14.55
2022-10-01T07:15:40.806Z,16.48
2022-10-01T07:20:39.718Z,17.55
2022-10-01T07:23:11.950Z,18.02
2022-10-01T07:25:40.481Z,17.08
2022-10-01T07:28:15.917Z,19.40
2022-10-01T07:30:47.559Z,21.00
2022-10-01T07:33:18.092Z,21.73
2022-10-01T07:35:45.156Z,20.48
2022-10-01T07:38:11.604Z,20.15
2022-10-01T07:40:38.138Z,21.25
2022-10-01T07:45:31.470Z,18.15
2022-10-01T07:50:27.783Z,16.67
2022-10-01T07:52:56.197Z,14.95
2022-10-01T07:55:26.358Z,16.23
2022-10-01T07:57:58.056Z,19.10
2022-10-01T08:00:26.314Z,17.73
2022-10-01T08:02:56.025Z,17.63
2022-10-01T08:05:31.412Z,16.20
2022-10-01T08:07:59.867Z,16.77
2022-10-01T08:10:26.620Z,20.08
2022-10-01T08:12:59.797Z,18.20
2022-10-01T08:15:26.344Z,17.92
2022-10-01T08:20:21.450Z,17.98
2022-10-01T08:22:47.921Z,20.65
2022-10-01T08:27:40.910Z,18.35
2022-10-01T08:30:08.144Z,17.90
2022-10-01T08:32:34.660Z,15.65
2022-10-01T08:35:01.260Z,17.13
2022-10-01T08:37:29.152Z,15.95
2022-10-01T08:39:56.433Z,16.30
2022-10-01T08:42:34.170Z,15.38
2022-10-01T08:45:12.798Z,16.63
2022-10-01T08:47:43.781Z,17.30
2022-10-01T08:50:27.986Z,15.85
2022-10-01T08:53:02.455Z,18.85
2022-10-01T08:55:36.346Z,16.65
2022-10-01T08:58:09.956Z,14.82
2022-10-01T09:00:40.277Z,16.88
2022-10-01T09:03:11.784Z,16.63
2022-10-01T09:05:40.970Z,17.38
2022-10-01T09:08:43.706Z,16.02
2022-10-01T09:11:31.324Z,15.23
2022-10-01T09:14:15.881Z,16.00
2022-10-01T09:16:55.689Z,15.57
2022-10-01T09:19:35.091Z,16.67
2022-10-01T09:22:26.147Z,17.88
2022-10-01T09:25:07.009Z,16.42
2022-10-01T09:27:34.088Z,14.48
2022-10-01T09:30:12.185Z,15.45
2022-10-01T09:32:46.972Z,14.38
2022-10-01T09:35:33.124Z,14.82
2022-10-01T09:38:24.249Z,19.02
2022-10-01T09:40:54.743Z,16.58
2022-10-01T09:43:28.641Z,17.13
2022-10-01T09:45:55.269Z,14.73
2022-10-01T09:51:08.698Z,13.85
2022-10-01T09:53:41.257Z,13.35
2022-10-01T09:56:19.019Z,12.48
2022-10-01T09:58:54.293Z,12.52
2022-10-01T10:01:28.417Z,12.05
2022-10-01T10:03:57.399Z,12.05
2022-10-01T10:06:29.841Z,11.32
2022-10-01T10:08:58.402Z,11.07
2022-10-01T10:11:28.366Z,10.52
2022-10-01T10:14:00.269Z,9.25
2022-10-01T10:32:47.158Z,7.85
2022-10-01T10:35:19.111Z,8.07
2022-10-01T10:37:49.684Z,8.07
2022-10-01T10:40:28.434Z,6.88
2022-10-01T10:42:58.520Z,7.43
2022-10-01T10:45:33.182Z,6.63
2022-10-01T10:48:03.847Z,6.78
2022-10-01T10:50:33.757Z,5.85
2022-10-01T10:53:11.157Z,5.82
2022-10-01T10:55:39.097Z,5.53
2022-10-01T10:58:14.912Z,4.35
2022-10-01T11:00:48.192Z,4.30
2022-10-01T11:03:17.433Z,4.63
2022-10-01T11:05:44.476Z,4.80
2022-10-01T11:08:23.790Z,3.85
2022-10-01T11:11:14.454Z,4.68
2022-10-01T11:13:40.939Z,4.22
2022-10-01T11:16:26.126Z,4.18
2022-10-01T11:19:01.607Z,3.65
2022-10-01T11:21:48.360Z,4.22
2022-10-01T11:24:36.696Z,3.97
2022-10-01T11:27:12.309Z,3.95
2022-10-01T11:30:05.480Z,4.38
2022-10-01T11:33:00.591Z,4.07
2022-10-01T11:35:50.626Z,4.43
2022-10-01T11:38:35.199Z,4.20
2022-10-01T11:41:24.864Z,4.03
2022-10-01T11:43:55.580Z,4.57
2022-10-01T11:47:09.525Z,4.15
2022-10-01T11:50:15.954Z,4.68
2022-10-01T11:52:56.619Z,3.75
2022-10-01T11:55:57.226Z,3.70
2022-10-01T11:58:48.541Z,4.38
2022-10-01T12:01:18.761Z,4.25
2022-10-01T12:03:54.338Z,4.55
2022-10-01T12:06:28.414Z,4.18
2022-10-01T12:09:11.919Z,3.40
2022-10-01T12:11:46.489Z,4.03
2022-10-01T12:14:19.783Z,3.78
2022-10-01T12:16:52.564Z,3.42
2022-10-01T12:19:23.156Z,4.05
2022-10-01T12:22:13.533Z,3.72
2022-10-01T12:24:42.919Z,3.78
2022-10-01T12:27:19.943Z,4.57
2022-10-01T12:29:52.513Z,3.47
2022-10-01T12:32:53.144Z,3.58
2022-10-01T12:36:04.356Z,3.42
2022-10-01T12:38:50.409Z,3.28
2022-10-01T12:41:26.029Z,3.55
2022-10-01T12:44:44.506Z,3.35
2022-10-01T12:47:21.695Z,3.87
2022-10-01T12:50:17.522Z,3.40
2022-10-01T12:52:59.450Z,3.50
2022-10-01T12:55:30.695Z,3.28
2022-10-01T12:58:12.852Z,3.58
2022-10-01T13:00:53.293Z,3.45
2022-10-01T13:03:38.270Z,3.30
2022-10-01T13:06:26.976Z,3.50
2022-10-01T13:09:12.379Z,3.35
2022-10-01T13:12:03.038Z,3.22
2022-10-01T13:14:33.075Z,3.53
2022-10-01T13:17:20.805Z,3.13
2022-10-01T13:22:45.386Z,3.50
2022-10-01T13:25:27.052Z,3.70
2022-10-01T13:27:58.341Z,3.40
2022-10-01T13:30:28.887Z,3.25
2022-10-01T13:32:58.332Z,3.42
2022-10-01T13:35:36.487Z,3.50
2022-10-01T13:38:17.077Z,3.72
2022-10-01T13:40:44.481Z,3.90
2022-10-01T13:43:20.402Z,3.85
2022-10-01T13:45:49.668Z,3.92
2022-10-01T13:48:22.039Z,5.80
2022-10-01T13:51:03.505Z,4.10
2022-10-01T13:53:33.430Z,5.38
2022-10-01T13:56:00.577Z,4.45
2022-10-01T13:58:30.049Z,36.92
2022-10-01T14:00:59.652Z,5.28
2022-10-01T14:03:30.143Z,3.83
2022-10-01T14:05:58.687Z,3.78
2022-10-01T14:08:39.141Z,3.17
2022-10-01T14:11:34.682Z,3.88
2022-10-01T14:14:30.952Z,3.55
2022-10-01T14:16:58.436Z,3.58
2022-10-01T14:19:27.390Z,3.60
2022-10-01T14:22:26.313Z,3.60
2022-10-01T14:25:11.524Z,4.03
2022-10-01T14:27:51.352Z,3.20
2022-10-01T14:30:24.390Z,3.72
2022-10-01T14:33:09.832Z,3.50
2022-10-01T14:35:56.581Z,3.63
2022-10-01T14:38:23.240Z,3.33
2022-10-01T14:43:31.309Z,3.85
2022-10-01T14:45:59.386Z,3.92
2022-10-01T14:48:29.065Z,3.95
2022-10-01T14:50:58.715Z,3.72
2022-10-01T14:53:32.243Z,3.60
2022-10-01T14:56:04.860Z,3.42
2022-10-01T14:58:39.312Z,3.83
2022-10-01T15:01:06.696Z,5.75
2022-10-01T15:03:38.609Z,3.33
2022-10-01T15:06:12.257Z,5.20
2022-10-01T15:08:41.584Z,3.88
2022-10-01T15:11:16.242Z,4.18
2022-10-01T15:13:44.899Z,3.40
2022-10-01T15:16:13.901Z,3.97
2022-10-01T15:19:01.474Z,4.25
2022-10-01T15:21:39.572Z,3.70
2022-10-01T15:24:16.319Z,2.78
2022-10-01T15:26:45.731Z,3.80
2022-10-01T15:29:14.559Z,4.15
2022-10-01T15:31:41.837Z,3.88
2022-10-01T15:34:15.217Z,3.90
2022-10-01T15:36:43.002Z,4.35
2022-10-01T15:39:21.273Z,2.90
2022-10-01T15:41:52.512Z,2.90
2022-10-01T15:44:39.245Z,2.70
2022-10-01T15:47:33.032Z,2.60
2022-10-01T15:50:06.776Z,2.83
2022-10-01T15:52:50.647Z,2.40
2022-10-01T15:55:49.443Z,2.95
2022-10-01T15:58:31.449Z,2.72
2022-10-01T16:01:09.337Z,2.45
2022-10-01T16:04:01.840Z,3.60
2022-10-01T16:06:35.974Z,2.60
2022-10-01T16:09:13.209Z,2.80
2022-10-01T16:14:23.481Z,2.30
2022-10-01T16:16:50.715Z,2.65
2022-10-01T16:19:30.348Z,3.03
2022-10-01T16:22:22.709Z,3.42
2022-10-01T16:24:55.007Z,4.07
2022-10-01T16:27:25.327Z,3.28
2022-10-01T16:30:09.078Z,2.88
2022-10-01T16:32:35.752Z,3.67
2022-10-01T16:37:50.813Z,3.15
2022-10-01T16:40:29.895Z,2.78
2022-10-01T16:42:58.311Z,3.03
2022-10-01T16:45:27.796Z,2.80
2022-10-01T16:47:58.020Z,2.95
2022-10-01T16:50:25.159Z,2.83
2022-10-01T16:52:53.371Z,3.15
2022-10-01T16:55:31.304Z,3.35
2022-10-01T16:57:58.161Z,2.67
2022-10-01T17:00:26.227Z,2.90
2022-10-01T17:02:54.709Z,2.80
2022-10-01T17:05:32.829Z,2.67
2022-10-01T17:08:00.951Z,2.88
2022-10-01T17:10:33.843Z,4.05
2022-10-01T17:13:01.979Z,7.10
2022-10-01T17:15:28.461Z,3.85
2022-10-01T17:17:56.911Z,17.52
2022-10-01T17:20:26.429Z,6.05
2022-10-01T17:22:52.937Z,3.80
2022-10-01T17:25:22.381Z,3.88
2022-10-01T17:27:49.231Z,3.80
2022-10-01T17:30:16.504Z,2.95
2022-10-01T17:32:43.354Z,3.08
2022-10-01T17:35:12.455Z,3.45
2022-10-01T17:37:39.783Z,6.43
2022-10-01T17:40:07.989Z,9.75
2022-10-01T17:42:35.606Z,9.30
2022-10-01T17:45:05.674Z,7.95
2022-10-01T17:47:32.245Z,4.70
2022-10-01T17:52:25.150Z,2.78
2022-10-01T17:54:51.621Z,2.60
2022-10-01T17:57:18.381Z,2.40
2022-10-01T17:59:44.800Z,2.58
2022-10-01T18:02:36.683Z,2.50
2022-10-01T18:04:59.904Z,2.38
2022-10-01T18:07:27.028Z,2.80
2022-10-01T18:09:53.895Z,2.95
2022-10-01T18:12:20.713Z,3.20
2022-10-01T18:14:47.682Z,2.50
2022-10-01T18:17:14.200Z,2.58
2022-10-01T18:19:56.056Z,3.10
2022-10-01T18:22:22.598Z,5.15
2022-10-01T18:27:15.550Z,3.25
2022-10-01T18:32:23.375Z,2.28
2022-10-01T18:35:00.501Z,2.65
2022-10-01T18:37:51.304Z,2.35
2022-10-01T18:40:36.693Z,2.63
2022-10-01T18:43:15.760Z,3.17
2022-10-01T18:46:20.600Z,2.10
2022-10-01T18:49:19.150Z,1.92
2022-10-01T18:51:57.663Z,2.20
2022-10-01T18:54:48.784Z,2.40
2022-10-01T18:57:41.844Z,2.67
2022-10-01T19:00:10.978Z,5.55
2022-10-01T19:03:05.422Z,5.05
2022-10-01T19:05:47.262Z,3.85
2022-10-01T19:08:29.294Z,3.28
2022-10-01T19:11:08.376Z,3.88
2022-10-01T19:14:16.543Z,3.00
2022-10-01T19:17:08.796Z,2.20
2022-10-01T19:20:14.945Z,2.50
2022-10-01T19:23:18.656Z,3.83
2022-10-01T19:26:03.304Z,4.38
2022-10-01T19:29:06.743Z,2.40
2022-10-01T19:31:45.899Z,2.55
2022-10-01T19:34:38.706Z,3.25
2022-10-01T19:37:12.767Z,2.08
2022-10-01T19:39:42.959Z,1.92
2022-10-01T19:42:33.147Z,2.38
2022-10-01T19:45:13.218Z,2.13
2022-10-01T19:47:46.829Z,2.80
2022-10-01T19:50:24.927Z,2.50
2022-10-01T19:52:55.565Z,3.20
2022-10-01T19:55:23.724Z,2.90
2022-10-01T19:57:50.543Z,2.35
2022-10-01T20:00:20.095Z,2.65
2022-10-01T20:02:53.944Z,2.20
2022-10-01T20:05:38.024Z,2.47
2022-10-01T20:08:27.602Z,2.10
2022-10-01T20:10:58.012Z,2.42
2022-10-01T20:13:49.125Z,2.20
2022-10-01T20:16:27.155Z,2.63
2022-10-01T20:19:04.877Z,2.45
2022-10-01T20:21:43.265Z,2.60
2022-10-01T20:24:49.962Z,2.20
2022-10-01T20:27:31.536Z,2.40
2022-10-01T20:30:11.917Z,2.28
2022-10-01T20:33:24.030Z,2.58
2022-10-01T20:36:02.141Z,2.40
2022-10-01T20:38:43.674Z,3.70
2022-10-01T20:41:15.137Z,4.93
2022-10-01T20:43:59.526Z,5.05
2022-10-01T20:46:47.145Z,2.90
2022-10-01T20:49:31.992Z,3.30
2022-10-01T20:52:01.046Z,3.97
2022-10-01T20:54:34.056Z,7.18
2022-10-01T20:57:17.639Z,7.38
2022-10-01T20:59:51.466Z,9.23
2022-10-01T21:02:34.945Z,6.55
2022-10-01T21:05:33.299Z,9.40
2022-10-01T21:08:05.142Z,5.97
2022-10-01T21:10:50.466Z,4.68
2022-10-01T21:13:41.334Z,7.53
2022-10-01T21:16:45.177Z,5.55
2022-10-01T21:19:27.082Z,5.70
2022-10-01T21:22:12.534Z,3.47
2022-10-01T21:25:06.427Z,2.55
2022-10-01T21:27:48.271Z,5.80
2022-10-01T21:30:17.488Z,4.50
2022-10-01T21:33:11.924Z,3.80
2022-10-01T21:35:47.381Z,4.82
2022-10-01T21:38:39.574Z,3.30
2022-10-01T21:41:18.673Z,3.47
2022-10-01T21:44:12.122Z,3.08
2022-10-01T21:47:03.473Z,11.60
2022-10-01T21:49:57.554Z,3.53
2022-10-01T21:52:26.860Z,19.17
2022-10-01T21:55:00.913Z,12.55
2022-10-01T21:58:02.046Z,6.65
2022-10-01T22:17:47.357Z,3.25
2022-10-01T22:20:16.935Z,3.17
2022-10-01T22:22:45.709Z,3.30
2022-10-01T22:25:13.733Z,3.30
2022-10-01T22:27:48.683Z,3.00
2022-10-01T22:30:21.370Z,3.67
2022-10-01T22:32:55.540Z,2.90
2022-10-01T22:35:28.391Z,3.80
2022-10-01T22:38:09.809Z,2.65
2022-10-01T22:40:42.063Z,3.55
2022-10-01T22:43:11.613Z,3.33
2022-10-01T22:46:04.243Z,3.28
2022-10-01T22:49:11.007Z,3.72
2022-10-01T22:52:09.568Z,3.15
2022-10-01T22:55:16.894Z,3.58
2022-10-01T22:58:12.414Z,3.88
2022-10-01T23:01:08.624Z,3.90
2022-10-01T23:03:35.384Z,3.50
2022-10-01T23:06:09.860Z,2.30
2022-10-01T23:08:49.663Z,3.40
2022-10-01T23:11:24.983Z,4.20
2022-10-01T23:14:06.622Z,2.47
2022-10-01T23:16:42.277Z,2.75
2022-10-01T23:19:27.947Z,3.38
2022-10-01T23:22:06.668Z,3.17
2022-10-01T23:24:53.116Z,2.50
2022-10-01T23:27:32.450Z,2.72
2022-10-01T23:30:09.877Z,3.10
2022-10-01T23:33:00.501Z,3.00
2022-10-01T23:35:42.805Z,3.38
2022-10-01T23:38:24.229Z,3.05
2022-10-01T23:40:55.620Z,3.03
2022-10-01T23:43:33.214Z,3.28
2022-10-01T23:46:11.386Z,2.92
2022-10-01T23:48:59.721Z,2.45
2022-10-01T23:51:47.787Z,2.75
2022-10-01T23:54:36.047Z,2.10
2022-10-01T23:57:21.072Z,2.92
2022-10-01T23:59:57.384Z,2.95
